sensor_id;sensor_type;location;lat;lon;timestamp;pressure;altitude;pressure_sealevel;temperature;humidity
63306;BME280;50735;52.060;1.248;2022-07-23T00:01:29;101668.37;;;16.32;48.27
63306;BME280;50735;52.060;1.248;2022-07-23T00:03:56;101671.39;;;16.74;48.42
63306;BME280;50735;52.060;1.248;2022-07-23T00:06:24;101667.32;;;16.65;48.77
63306;BME280;50735;52.060;1.248;2022-07-23T00:08:52;101664.23;;;16.23;49.47
63306;BME280;50735;52.060;1.248;2022-07-23T00:11:19;101658.88;;;16.31;49.30
63306;BME280;50735;52.060;1.248;2022-07-23T00:13:47;101655.85;;;16.41;49.13
63306;BME280;50735;52.060;1.248;2022-07-23T00:16:14;101652.61;;;16.63;48.55
63306;BME280;50735;52.060;1.248;2022-07-23T00:18:41;101652.93;;;16.78;48.32
63306;BME280;50735;52.060;1.248;2022-07-23T00:21:08;101651.64;;;16.71;48.40
63306;BME280;50735;52.060;1.248;2022-07-23T00:23:35;101650.23;;;16.53;48.80
63306;BME280;50735;52.060;1.248;2022-07-23T00:26:03;101652.81;;;16.60;48.91
63306;BME280;50735;52.060;1.248;2022-07-23T00:28:30;101655.74;;;16.67;48.73
63306;BME280;50735;52.060;1.248;2022-07-23T00:30:57;101657.05;;;16.75;48.36
63306;BME280;50735;52.060;1.248;2022-07-23T00:33:24;101658.64;;;16.44;48.83
63306;BME280;50735;52.060;1.248;2022-07-23T00:35:50;101661.71;;;16.32;48.81
63306;BME280;50735;52.060;1.248;2022-07-23T00:38:18;101663.62;;;16.41;48.54
63306;BME280;50735;52.060;1.248;2022-07-23T00:40:45;101662.23;;;16.74;48.08
63306;BME280;50735;52.060;1.248;2022-07-23T00:43:13;101657.94;;;16.60;48.28
63306;BME280;50735;52.060;1.248;2022-07-23T00:45:39;101654.20;;;16.70;48.23
63306;BME280;50735;52.060;1.248;2022-07-23T00:48:06;101652.57;;;16.83;48.15
63306;BME280;50735;52.060;1.248;2022-07-23T00:50:33;101649.57;;;16.77;48.04
63306;BME280;50735;52.060;1.248;2022-07-23T00:53:01;101646.75;;;16.39;48.14
63306;BME280;50735;52.060;1.248;2022-07-23T00:55:28;101640.95;;;16.90;48.09
63306;BME280;50735;52.060;1.248;2022-07-23T00:57:55;101640.27;;;17.03;47.49
63306;BME280;50735;52.060;1.248;2022-07-23T01:00:24;101640.25;;;17.05;47.65
63306;BME280;50735;52.060;1.248;2022-07-23T01:02:51;101642.86;;;16.87;48.14
63306;BME280;50735;52.060;1.248;2022-07-23T01:05:19;101643.72;;;16.93;47.70
63306;BME280;50735;52.060;1.248;2022-07-23T01:07:46;101642.40;;;16.82;47.55
63306;BME280;50735;52.060;1.248;2022-07-23T01:10:13;101644.31;;;16.84;47.18
63306;BME280;50735;52.060;1.248;2022-07-23T01:12:41;101646.94;;;17.05;47.11
63306;BME280;50735;52.060;1.248;2022-07-23T01:15:08;101648.03;;;17.07;46.98
63306;BME280;50735;52.060;1.248;2022-07-23T01:17:35;101651.15;;;17.06;47.20
63306;BME280;50735;52.060;1.248;2022-07-23T01:20:02;101655.50;;;17.06;46.98
63306;BME280;50735;52.060;1.248;2022-07-23T01:22:29;101658.43;;;17.06;47.13
63306;BME280;50735;52.060;1.248;2022-07-23T01:24:56;101664.68;;;17.05;47.19
63306;BME280;50735;52.060;1.248;2022-07-23T01:27:23;101662.99;;;17.05;47.36
63306;BME280;50735;52.060;1.248;2022-07-23T01:29:49;101664.82;;;17.05;47.30
63306;BME280;50735;52.060;1.248;2022-07-23T01:32:16;101664.03;;;17.03;47.79
63306;BME280;50735;52.060;1.248;2022-07-23T01:34:42;101663.27;;;17.15;47.90
63306;BME280;50735;52.060;1.248;2022-07-23T01:37:10;101665.10;;;16.96;47.79
63306;BME280;50735;52.060;1.248;2022-07-23T01:39:36;101663.31;;;16.90;47.92
63306;BME280;50735;52.060;1.248;2022-07-23T01:42:03;101661.70;;;17.08;47.47
63306;BME280;50735;52.060;1.248;2022-07-23T01:44:31;101661.86;;;16.89;47.56
63306;BME280;50735;52.060;1.248;2022-07-23T01:46:58;101662.05;;;16.90;48.15
63306;BME280;50735;52.060;1.248;2022-07-23T01:49:25;101664.88;;;16.91;48.17
63306;BME280;50735;52.060;1.248;2022-07-23T01:51:52;101662.93;;;16.86;48.49
63306;BME280;50735;52.060;1.248;2022-07-23T01:54:18;101666.06;;;16.64;48.75
63306;BME280;50735;52.060;1.248;2022-07-23T01:56:45;101664.09;;;16.50;49.16
63306;BME280;50735;52.060;1.248;2022-07-23T01:59:11;101665.63;;;16.58;48.73
63306;BME280;50735;52.060;1.248;2022-07-23T02:01:38;101663.58;;;16.57;48.61
63306;BME280;50735;52.060;1.248;2022-07-23T02:04:05;101663.22;;;17.00;49.30
63306;BME280;50735;52.060;1.248;2022-07-23T02:06:31;101663.29;;;16.60;49.31
63306;BME280;50735;52.060;1.248;2022-07-23T02:08:59;101662.21;;;16.59;49.23
63306;BME280;50735;52.060;1.248;2022-07-23T02:11:26;101665.44;;;16.47;49.26
63306;BME280;50735;52.060;1.248;2022-07-23T02:13:53;101669.50;;;16.56;48.70
63306;BME280;50735;52.060;1.248;2022-07-23T02:16:20;101667.48;;;16.46;48.82
63306;BME280;50735;52.060;1.248;2022-07-23T02:18:46;101662.82;;;16.87;48.74
63306;BME280;50735;52.060;1.248;2022-07-23T02:21:14;101662.12;;;16.93;48.32
63306;BME280;50735;52.060;1.248;2022-07-23T02:23:41;101663.48;;;16.78;48.26
63306;BME280;50735;52.060;1.248;2022-07-23T02:26:08;101662.29;;;16.81;48.84
63306;BME280;50735;52.060;1.248;2022-07-23T02:28:35;101661.42;;;16.95;48.95
63306;BME280;50735;52.060;1.248;2022-07-23T02:31:02;101662.03;;;16.61;49.19
63306;BME280;50735;52.060;1.248;2022-07-23T02:33:29;101660.14;;;16.74;49.45
63306;BME280;50735;52.060;1.248;2022-07-23T02:35:56;101662.81;;;16.59;49.40
63306;BME280;50735;52.060;1.248;2022-07-23T02:38:24;101660.81;;;16.71;49.36
63306;BME280;50735;52.060;1.248;2022-07-23T02:40:51;101661.65;;;16.76;48.95
63306;BME280;50735;52.060;1.248;2022-07-23T02:43:19;101662.29;;;16.87;49.18
63306;BME280;50735;52.060;1.248;2022-07-23T02:45:46;101658.18;;;16.72;49.10
63306;BME280;50735;52.060;1.248;2022-07-23T02:48:13;101657.27;;;16.84;49.60
63306;BME280;50735;52.060;1.248;2022-07-23T02:50:39;101656.65;;;16.65;49.52
63306;BME280;50735;52.060;1.248;2022-07-23T02:53:06;101656.67;;;16.71;49.77
63306;BME280;50735;52.060;1.248;2022-07-23T02:55:34;101656.33;;;16.79;49.76
63306;BME280;50735;52.060;1.248;2022-07-23T02:58:01;101655.50;;;16.51;49.94
63306;BME280;50735;52.060;1.248;2022-07-23T03:00:29;101653.93;;;16.63;49.94
63306;BME280;50735;52.060;1.248;2022-07-23T03:02:55;101649.31;;;16.46;49.90
63306;BME280;50735;52.060;1.248;2022-07-23T03:05:22;101646.34;;;16.53;49.92
63306;BME280;50735;52.060;1.248;2022-07-23T03:07:49;101645.87;;;16.61;49.32
63306;BME280;50735;52.060;1.248;2022-07-23T03:10:16;101646.24;;;16.73;49.24
63306;BME280;50735;52.060;1.248;2022-07-23T03:12:43;101644.37;;;16.82;49.30
63306;BME280;50735;52.060;1.248;2022-07-23T03:15:10;101645.70;;;16.81;49.42
63306;BME280;50735;52.060;1.248;2022-07-23T03:17:37;101643.55;;;16.79;49.34
63306;BME280;50735;52.060;1.248;2022-07-23T03:20:06;101644.36;;;16.55;49.44
63306;BME280;50735;52.060;1.248;2022-07-23T03:22:33;101650.31;;;16.67;49.48
63306;BME280;50735;52.060;1.248;2022-07-23T03:25:01;101650.81;;;16.90;48.99
63306;BME280;50735;52.060;1.248;2022-07-23T03:27:29;101646.91;;;16.79;48.97
63306;BME280;50735;52.060;1.248;2022-07-23T03:29:58;101645.55;;;16.75;48.97
63306;BME280;50735;52.060;1.248;2022-07-23T03:32:26;101646.78;;;16.75;48.97
63306;BME280;50735;52.060;1.248;2022-07-23T03:34:53;101647.77;;;16.78;49.24
63306;BME280;50735;52.060;1.248;2022-07-23T03:37:20;101644.66;;;16.76;48.59
63306;BME280;50735;52.060;1.248;2022-07-23T03:39:48;101643.22;;;16.78;48.74
63306;BME280;50735;52.060;1.248;2022-07-23T03:42:15;101640.93;;;16.75;48.65
63306;BME280;50735;52.060;1.248;2022-07-23T03:44:42;101638.35;;;16.70;48.63
63306;BME280;50735;52.060;1.248;2022-07-23T03:47:08;101639.07;;;16.68;49.18
63306;BME280;50735;52.060;1.248;2022-07-23T03:49:35;101633.60;;;16.63;48.93
63306;BME280;50735;52.060;1.248;2022-07-23T03:52:03;101629.01;;;16.77;49.06
63306;BME280;50735;52.060;1.248;2022-07-23T03:54:30;101624.69;;;16.54;49.11
63306;BME280;50735;52.060;1.248;2022-07-23T03:56:57;101625.44;;;16.62;49.66
63306;BME280;50735;52.060;1.248;2022-07-23T03:59:24;101628.92;;;16.35;49.17
63306;BME280;50735;52.060;1.248;2022-07-23T04:01:51;101629.23;;;16.76;49.06
63306;BME280;50735;52.060;1.248;2022-07-23T04:04:19;101632.05;;;16.38;49.67
63306;BME280;50735;52.060;1.248;2022-07-23T04:06:46;101631.44;;;16.34;49.21
63306;BME280;50735;52.060;1.248;2022-07-23T04:09:13;101629.28;;;16.50;48.95
63306;BME280;50735;52.060;1.248;2022-07-23T04:11:40;101629.29;;;16.31;49.07
63306;BME280;50735;52.060;1.248;2022-07-23T04:14:07;101633.41;;;16.47;48.97
63306;BME280;50735;52.060;1.248;2022-07-23T04:16:34;101634.31;;;16.45;49.44
63306;BME280;50735;52.060;1.248;2022-07-23T04:19:01;101637.49;;;16.42;49.30
63306;BME280;50735;52.060;1.248;2022-07-23T04:21:28;101641.78;;;16.43;49.37
63306;BME280;50735;52.060;1.248;2022-07-23T04:23:55;101643.60;;;16.47;50.10
63306;BME280;50735;52.060;1.248;2022-07-23T04:26:21;101647.06;;;16.66;49.74
63306;BME280;50735;52.060;1.248;2022-07-23T04:28:49;101647.12;;;16.26;50.00
63306;BME280;50735;52.060;1.248;2022-07-23T04:31:15;101647.48;;;16.41;49.85
63306;BME280;50735;52.060;1.248;2022-07-23T04:33:43;101646.92;;;16.66;49.69
63306;BME280;50735;52.060;1.248;2022-07-23T04:36:10;101650.90;;;16.64;49.92
63306;BME280;50735;52.060;1.248;2022-07-23T04:38:37;101653.46;;;16.35;50.39
63306;BME280;50735;52.060;1.248;2022-07-23T04:41:03;101653.02;;;16.38;50.10
63306;BME280;50735;52.060;1.248;2022-07-23T04:43:31;101652.91;;;16.62;49.82
63306;BME280;50735;52.060;1.248;2022-07-23T04:45:58;101651.93;;;16.50;49.61
63306;BME280;50735;52.060;1.248;2022-07-23T04:48:25;101650.86;;;16.83;49.64
63306;BME280;50735;52.060;1.248;2022-07-23T04:50:53;101653.87;;;16.53;49.91
63306;BME280;50735;52.060;1.248;2022-07-23T04:53:20;101655.13;;;16.54;49.95
63306;BME280;50735;52.060;1.248;2022-07-23T04:55:48;101653.10;;;16.49;50.49
63306;BME280;50735;52.060;1.248;2022-07-23T04:58:14;101651.07;;;16.28;50.39
63306;BME280;50735;52.060;1.248;2022-07-23T05:00:42;101652.70;;;16.34;50.61
63306;BME280;50735;52.060;1.248;2022-07-23T05:03:08;101650.75;;;16.41;50.10
63306;BME280;50735;52.060;1.248;2022-07-23T05:05:35;101651.40;;;16.50;49.99
63306;BME280;50735;52.060;1.248;2022-07-23T05:08:03;101652.77;;;16.73;49.92
63306;BME280;50735;52.060;1.248;2022-07-23T05:10:30;101650.06;;;16.83;49.79
63306;BME280;50735;52.060;1.248;2022-07-23T05:12:57;101649.52;;;16.94;49.50
63306;BME280;50735;52.060;1.248;2022-07-23T05:15:25;101649.11;;;17.24;49.58
63306;BME280;50735;52.060;1.248;2022-07-23T05:17:52;101648.14;;;16.87;49.54
63306;BME280;50735;52.060;1.248;2022-07-23T05:20:19;101653.77;;;17.13;49.41
63306;BME280;50735;52.060;1.248;2022-07-23T05:22:46;101656.52;;;17.23;49.10
63306;BME280;50735;52.060;1.248;2022-07-23T05:25:13;101653.94;;;17.14;49.12
63306;BME280;50735;52.060;1.248;2022-07-23T05:27:40;101657.91;;;17.57;49.50
63306;BME280;50735;52.060;1.248;2022-07-23T05:30:09;101659.49;;;17.37;49.08
63306;BME280;50735;52.060;1.248;2022-07-23T05:32:36;101657.84;;;17.27;49.06
63306;BME280;50735;52.060;1.248;2022-07-23T05:35:05;101656.87;;;17.11;48.97
63306;BME280;50735;52.060;1.248;2022-07-23T05:37:32;101652.80;;;17.42;48.93
63306;BME280;50735;52.060;1.248;2022-07-23T05:40:01;101656.23;;;17.50;48.74
63306;BME280;50735;52.060;1.248;2022-07-23T05:42:27;101656.22;;;17.60;48.56
63306;BME280;50735;52.060;1.248;2022-07-23T05:44:55;101652.00;;;17.67;48.36
63306;BME280;50735;52.060;1.248;2022-07-23T05:47:21;101651.78;;;17.73;48.43
63306;BME280;50735;52.060;1.248;2022-07-23T05:49:48;101651.62;;;17.77;48.31
63306;BME280;50735;52.060;1.248;2022-07-23T05:52:15;101653.98;;;17.78;48.19
63306;BME280;50735;52.060;1.248;2022-07-23T05:54:42;101651.28;;;17.82;48.23
63306;BME280;50735;52.060;1.248;2022-07-23T05:57:09;101649.46;;;17.67;48.25
63306;BME280;50735;52.060;1.248;2022-07-23T05:59:37;101652.06;;;17.85;48.33
63306;BME280;50735;52.060;1.248;2022-07-23T06:02:03;101658.43;;;17.47;48.46
63306;BME280;50735;52.060;1.248;2022-07-23T06:04:30;101659.08;;;17.77;48.47
63306;BME280;50735;52.060;1.248;2022-07-23T06:06:56;101657.92;;;17.83;48.70
63306;BME280;50735;52.060;1.248;2022-07-23T06:09:23;101656.97;;;17.87;48.36
63306;BME280;50735;52.060;1.248;2022-07-23T06:11:50;101657.63;;;17.96;48.33
63306;BME280;50735;52.060;1.248;2022-07-23T06:14:18;101656.65;;;17.81;48.26
63306;BME280;50735;52.060;1.248;2022-07-23T06:16:45;101656.66;;;17.87;48.72
63306;BME280;50735;52.060;1.248;2022-07-23T06:19:12;101657.12;;;18.12;48.52
63306;BME280;50735;52.060;1.248;2022-07-23T06:21:38;101658.85;;;17.91;48.35
63306;BME280;50735;52.060;1.248;2022-07-23T06:24:06;101656.21;;;18.22;48.32
63306;BME280;50735;52.060;1.248;2022-07-23T06:26:33;101655.22;;;18.06;48.40
63306;BME280;50735;52.060;1.248;2022-07-23T06:29:00;101651.41;;;18.08;48.40
63306;BME280;50735;52.060;1.248;2022-07-23T06:31:28;101649.94;;;18.14;48.67
63306;BME280;50735;52.060;1.248;2022-07-23T06:33:55;101651.05;;;18.08;48.77
63306;BME280;50735;52.060;1.248;2022-07-23T06:36:22;101646.75;;;17.75;49.62
63306;BME280;50735;52.060;1.248;2022-07-23T06:38:49;101643.72;;;17.60;50.12
63306;BME280;50735;52.060;1.248;2022-07-23T06:41:16;101641.68;;;17.75;49.55
63306;BME280;50735;52.060;1.248;2022-07-23T06:43:43;101640.27;;;17.92;49.27
63306;BME280;50735;52.060;1.248;2022-07-23T06:46:10;101637.77;;;18.14;49.07
63306;BME280;50735;52.060;1.248;2022-07-23T06:48:38;101629.99;;;18.21;48.89
63306;BME280;50735;52.060;1.248;2022-07-23T06:51:05;101632.93;;;18.14;49.23
63306;BME280;50735;52.060;1.248;2022-07-23T06:53:32;101633.88;;;17.79;49.72
63306;BME280;50735;52.060;1.248;2022-07-23T06:55:59;101635.89;;;18.00;49.91
63306;BME280;50735;52.060;1.248;2022-07-23T06:58:26;101638.69;;;17.53;50.53
63306;BME280;50735;52.060;1.248;2022-07-23T07:00:54;101641.05;;;17.76;50.17
63306;BME280;50735;52.060;1.248;2022-07-23T07:03:22;101642.75;;;18.08;50.03
63306;BME280;50735;52.060;1.248;2022-07-23T07:05:49;101645.49;;;17.77;49.90
63306;BME280;50735;52.060;1.248;2022-07-23T07:08:16;101649.07;;;17.75;50.36
63306;BME280;50735;52.060;1.248;2022-07-23T07:10:43;101645.75;;;17.98;49.66
63306;BME280;50735;52.060;1.248;2022-07-23T07:13:10;101644.04;;;17.80;49.23
63306;BME280;50735;52.060;1.248;2022-07-23T07:15:38;101640.37;;;18.06;48.76
63306;BME280;50735;52.060;1.248;2022-07-23T07:18:04;101636.28;;;18.08;48.98
63306;BME280;50735;52.060;1.248;2022-07-23T07:20:32;101634.71;;;18.60;48.26
63306;BME280;50735;52.060;1.248;2022-07-23T07:22:59;101638.26;;;18.48;48.46
63306;BME280;50735;52.060;1.248;2022-07-23T07:25:27;101642.63;;;18.64;48.65
63306;BME280;50735;52.060;1.248;2022-07-23T07:27:54;101645.87;;;18.66;48.23
63306;BME280;50735;52.060;1.248;2022-07-23T07:30:22;101651.35;;;19.24;47.81
63306;BME280;50735;52.060;1.248;2022-07-23T07:32:48;101652.16;;;19.20;46.51
63306;BME280;50735;52.060;1.248;2022-07-23T07:35:16;101654.62;;;19.02;47.76
63306;BME280;50735;52.060;1.248;2022-07-23T07:37:43;101649.69;;;19.31;47.59
63306;BME280;50735;52.060;1.248;2022-07-23T07:40:10;101651.45;;;19.19;47.31
63306;BME280;50735;52.060;1.248;2022-07-23T07:42:44;101648.42;;;19.20;46.98
63306;BME280;50735;52.060;1.248;2022-07-23T07:45:11;101643.93;;;19.75;46.64
63306;BME280;50735;52.060;1.248;2022-07-23T07:47:38;101646.97;;;19.28;47.15
63306;BME280;50735;52.060;1.248;2022-07-23T07:50:07;101644.93;;;19.58;47.34
63306;BME280;50735;52.060;1.248;2022-07-23T07:52:35;101645.66;;;19.16;47.28
63306;BME280;50735;52.060;1.248;2022-07-23T07:55:02;101646.50;;;19.00;47.52
63306;BME280;50735;52.060;1.248;2022-07-23T07:57:29;101651.72;;;19.14;47.30
63306;BME280;50735;52.060;1.248;2022-07-23T07:59:56;101648.17;;;18.80;47.68
63306;BME280;50735;52.060;1.248;2022-07-23T08:02:23;101649.22;;;19.44;47.30
63306;BME280;50735;52.060;1.248;2022-07-23T08:04:50;101640.18;;;19.88;46.62
63306;BME280;50735;52.060;1.248;2022-07-23T08:07:18;101646.04;;;19.71;46.41
63306;BME280;50735;52.060;1.248;2022-07-23T08:09:45;101641.35;;;19.65;46.39
63306;BME280;50735;52.060;1.248;2022-07-23T08:12:12;101644.61;;;19.90;46.08
63306;BME280;50735;52.060;1.248;2022-07-23T08:14:40;101648.62;;;20.32;46.07
63306;BME280;50735;52.060;1.248;2022-07-23T08:17:07;101645.27;;;20.32;45.66
63306;BME280;50735;52.060;1.248;2022-07-23T08:19:33;101647.02;;;20.66;44.97
63306;BME280;50735;52.060;1.248;2022-07-23T08:22:00;101650.02;;;20.88;44.01
63306;BME280;50735;52.060;1.248;2022-07-23T08:24:27;101643.46;;;20.85;44.23
63306;BME280;50735;52.060;1.248;2022-07-23T08:26:54;101648.18;;;20.78;44.27
63306;BME280;50735;52.060;1.248;2022-07-23T08:29:21;101649.19;;;20.76;43.73
63306;BME280;50735;52.060;1.248;2022-07-23T08:31:48;101644.89;;;21.02;43.70
63306;BME280;50735;52.060;1.248;2022-07-23T08:34:16;101642.49;;;20.97;44.29
63306;BME280;50735;52.060;1.248;2022-07-23T08:36:43;101639.71;;;20.67;45.00
63306;BME280;50735;52.060;1.248;2022-07-23T08:39:09;101638.46;;;20.38;45.69
63306;BME280;50735;52.060;1.248;2022-07-23T08:41:39;101642.34;;;20.26;46.55
63306;BME280;50735;52.060;1.248;2022-07-23T08:44:07;101639.32;;;19.78;47.48
63306;BME280;50735;52.060;1.248;2022-07-23T08:46:34;101631.98;;;19.80;47.71
63306;BME280;50735;52.060;1.248;2022-07-23T08:49:02;101634.72;;;20.26;47.04
63306;BME280;50735;52.060;1.248;2022-07-23T08:51:29;101632.07;;;20.41;46.08
63306;BME280;50735;52.060;1.248;2022-07-23T08:53:57;101633.91;;;20.58;45.48
63306;BME280;50735;52.060;1.248;2022-07-23T08:56:25;101633.28;;;20.71;44.25
63306;BME280;50735;52.060;1.248;2022-07-23T08:58:53;101634.57;;;21.51;42.53
63306;BME280;50735;52.060;1.248;2022-07-23T09:01:20;101629.57;;;21.83;41.32
63306;BME280;50735;52.060;1.248;2022-07-23T09:03:47;101634.71;;;21.79;41.28
63306;BME280;50735;52.060;1.248;2022-07-23T09:06:15;101634.88;;;21.94;40.52
63306;BME280;50735;52.060;1.248;2022-07-23T09:08:43;101631.29;;;22.40;40.14
63306;BME280;50735;52.060;1.248;2022-07-23T09:11:12;101632.04;;;22.74;39.12
63306;BME280;50735;52.060;1.248;2022-07-23T09:13:40;101637.54;;;22.43;39.95
63306;BME280;50735;52.060;1.248;2022-07-23T09:16:09;101647.83;;;21.56;41.13
63306;BME280;50735;52.060;1.248;2022-07-23T09:18:41;101643.76;;;21.43;41.79
63306;BME280;50735;52.060;1.248;2022-07-23T09:21:12;101646.19;;;21.35;42.57
63306;BME280;50735;52.060;1.248;2022-07-23T09:23:41;101647.60;;;21.03;42.95
63306;BME280;50735;52.060;1.248;2022-07-23T09:26:21;101646.37;;;20.65;43.34
63306;BME280;50735;52.060;1.248;2022-07-23T09:28:52;101642.57;;;21.13;43.26
63306;BME280;50735;52.060;1.248;2022-07-23T09:31:20;101642.37;;;20.46;44.41
63306;BME280;50735;52.060;1.248;2022-07-23T09:33:47;101644.50;;;20.53;44.52
63306;BME280;50735;52.060;1.248;2022-07-23T09:36:14;101649.59;;;20.49;45.37
63306;BME280;50735;52.060;1.248;2022-07-23T09:38:50;101650.13;;;20.63;45.20
63306;BME280;50735;52.060;1.248;2022-07-23T09:41:17;101645.64;;;20.90;45.20
63306;BME280;50735;52.060;1.248;2022-07-23T09:43:44;101642.36;;;21.30;44.48
63306;BME280;50735;52.060;1.248;2022-07-23T09:46:20;101645.89;;;21.53;43.30
63306;BME280;50735;52.060;1.248;2022-07-23T09:48:48;101645.50;;;21.61;43.16
63306;BME280;50735;52.060;1.248;2022-07-23T09:51:15;101639.47;;;22.14;41.63
63306;BME280;50735;52.060;1.248;2022-07-23T09:53:42;101636.88;;;22.52;40.92
63306;BME280;50735;52.060;1.248;2022-07-23T09:56:12;101637.12;;;22.86;39.67
63306;BME280;50735;52.060;1.248;2022-07-23T09:58:40;101637.42;;;22.73;39.83
63306;BME280;50735;52.060;1.248;2022-07-23T10:01:07;101634.56;;;23.13;39.67
63306;BME280;50735;52.060;1.248;2022-07-23T10:03:35;101628.57;;;23.21;39.53
63306;BME280;50735;52.060;1.248;2022-07-23T10:06:03;101629.96;;;23.26;37.81
63306;BME280;50735;52.060;1.248;2022-07-23T10:08:32;101622.65;;;23.66;37.10
63306;BME280;50735;52.060;1.248;2022-07-23T10:11:00;101622.58;;;24.22;37.09
63306;BME280;50735;52.060;1.248;2022-07-23T10:13:28;101619.60;;;24.57;36.19
63306;BME280;50735;52.060;1.248;2022-07-23T10:15:55;101618.47;;;24.67;35.71
63306;BME280;50735;52.060;1.248;2022-07-23T10:18:23;101614.78;;;24.70;35.95
63306;BME280;50735;52.060;1.248;2022-07-23T10:20:50;101622.69;;;24.54;36.08
63306;BME280;50735;52.060;1.248;2022-07-23T10:23:24;101625.38;;;24.46;35.78
63306;BME280;50735;52.060;1.248;2022-07-23T10:26:05;101627.81;;;24.39;36.41
63306;BME280;50735;52.060;1.248;2022-07-23T10:28:47;101623.49;;;24.29;37.02
63306;BME280;50735;52.060;1.248;2022-07-23T10:31:28;101618.72;;;25.41;35.71
63306;BME280;50735;52.060;1.248;2022-07-23T10:34:02;101621.41;;;25.17;34.15
63306;BME280;50735;52.060;1.248;2022-07-23T10:36:42;101622.16;;;25.44;34.00
63306;BME280;50735;52.060;1.248;2022-07-23T10:39:15;101619.61;;;24.69;34.40
63306;BME280;50735;52.060;1.248;2022-07-23T10:41:44;101620.29;;;24.76;35.58
63306;BME280;50735;52.060;1.248;2022-07-23T10:44:13;101622.38;;;24.94;35.70
63306;BME280;50735;52.060;1.248;2022-07-23T10:47:01;101618.81;;;25.44;35.20
63306;BME280;50735;52.060;1.248;2022-07-23T10:49:30;101622.52;;;25.03;35.86
63306;BME280;50735;52.060;1.248;2022-07-23T10:52:30;101619.63;;;25.01;36.17
63306;BME280;50735;52.060;1.248;2022-07-23T10:55:50;101618.12;;;24.41;36.68
63306;BME280;50735;52.060;1.248;2022-07-23T10:58:23;101610.76;;;25.03;35.97
63306;BME280;50735;52.060;1.248;2022-07-23T11:00:50;101603.26;;;24.55;36.74
63306;BME280;50735;52.060;1.248;2022-07-23T11:03:34;101601.44;;;24.85;36.16
63306;BME280;50735;52.060;1.248;2022-07-23T11:06:01;101600.77;;;24.52;36.79
63306;BME280;50735;52.060;1.248;2022-07-23T11:08:28;101607.50;;;24.51;37.14
63306;BME280;50735;52.060;1.248;2022-07-23T11:11:09;101597.24;;;24.62;36.83
63306;BME280;50735;52.060;1.248;2022-07-23T11:13:39;101601.49;;;24.16;37.81
63306;BME280;50735;52.060;1.248;2022-07-23T11:16:12;101597.57;;;24.43;37.42
63306;BME280;50735;52.060;1.248;2022-07-23T11:19:12;101596.86;;;23.66;38.09
63306;BME280;50735;52.060;1.248;2022-07-23T11:21:47;101604.88;;;24.27;37.60
63306;BME280;50735;52.060;1.248;2022-07-23T11:24:17;101597.80;;;24.46;37.19
63306;BME280;50735;52.060;1.248;2022-07-23T11:26:48;101604.45;;;24.80;37.03
63306;BME280;50735;52.060;1.248;2022-07-23T11:29:48;101600.22;;;25.00;36.35
63306;BME280;50735;52.060;1.248;2022-07-23T11:32:28;101605.15;;;25.29;35.63
63306;BME280;50735;52.060;1.248;2022-07-23T11:34:56;101606.65;;;25.46;35.42
63306;BME280;50735;52.060;1.248;2022-07-23T11:37:35;101600.96;;;24.78;36.12
63306;BME280;50735;52.060;1.248;2022-07-23T11:40:07;101600.29;;;24.76;35.74
63306;BME280;50735;52.060;1.248;2022-07-23T11:42:37;101598.23;;;25.00;35.46
63306;BME280;50735;52.060;1.248;2022-07-23T11:45:07;101589.01;;;24.72;35.68
63306;BME280;50735;52.060;1.248;2022-07-23T11:47:35;101590.83;;;24.77;35.64
63306;BME280;50735;52.060;1.248;2022-07-23T11:50:05;101594.37;;;25.05;35.44
63306;BME280;50735;52.060;1.248;2022-07-23T11:52:33;101588.42;;;24.79;35.95
63306;BME280;50735;52.060;1.248;2022-07-23T11:55:02;101585.39;;;24.75;35.73
63306;BME280;50735;52.060;1.248;2022-07-23T11:57:32;101586.31;;;24.53;35.97
63306;BME280;50735;52.060;1.248;2022-07-23T12:00:03;101586.77;;;24.36;36.11
63306;BME280;50735;52.060;1.248;2022-07-23T12:02:31;101589.17;;;24.39;35.70
63306;BME280;50735;52.060;1.248;2022-07-23T12:04:58;101585.76;;;25.03;35.20
63306;BME280;50735;52.060;1.248;2022-07-23T12:07:28;101585.95;;;25.01;34.83
63306;BME280;50735;52.060;1.248;2022-07-23T12:09:57;101588.88;;;25.01;34.78
63306;BME280;50735;52.060;1.248;2022-07-23T12:12:25;101583.77;;;24.79;34.66
63306;BME280;50735;52.060;1.248;2022-07-23T12:14:54;101581.34;;;25.54;34.29
63306;BME280;50735;52.060;1.248;2022-07-23T12:17:27;101578.23;;;25.31;33.95
63306;BME280;50735;52.060;1.248;2022-07-23T12:19:56;101571.53;;;24.49;35.70
63306;BME280;50735;52.060;1.248;2022-07-23T12:22:24;101569.32;;;23.96;36.70
63306;BME280;50735;52.060;1.248;2022-07-23T12:24:55;101574.77;;;24.78;35.54
63306;BME280;50735;52.060;1.248;2022-07-23T12:27:22;101569.96;;;25.31;35.22
63306;BME280;50735;52.060;1.248;2022-07-23T12:29:50;101578.81;;;24.44;35.65
63306;BME280;50735;52.060;1.248;2022-07-23T12:32:19;101575.75;;;24.48;35.61
63306;BME280;50735;52.060;1.248;2022-07-23T12:34:49;101574.53;;;24.62;35.75
63306;BME280;50735;52.060;1.248;2022-07-23T12:37:34;101569.93;;;25.35;35.06
63306;BME280;50735;52.060;1.248;2022-07-23T12:40:36;101569.46;;;25.00;35.19
63306;BME280;50735;52.060;1.248;2022-07-23T12:43:06;101571.10;;;24.90;35.66
63306;BME280;50735;52.060;1.248;2022-07-23T12:45:46;101570.72;;;24.57;36.61
63306;BME280;50735;52.060;1.248;2022-07-23T12:48:19;101574.77;;;24.05;37.27
63306;BME280;50735;52.060;1.248;2022-07-23T12:50:52;101568.56;;;23.89;37.36
63306;BME280;50735;52.060;1.248;2022-07-23T12:53:21;101562.81;;;23.61;38.09
63306;BME280;50735;52.060;1.248;2022-07-23T12:55:49;101568.33;;;23.52;38.08
63306;BME280;50735;52.060;1.248;2022-07-23T12:58:17;101562.54;;;24.16;37.06